Ripon, Wisconsin
Current Conditions -  °F | °C
As of 1:53 AM on Tuesday 21 Oct 2014 (Local Time) from KOSH Reporting Station
Overcast Overcast  
Wind Chill: 41°   Ceiling: 4800
Heat Index: 46°   Visibility: 10mi
Dew Point: 38°   Wind: 10mph
Humidity: 73%   Direction: 350°N
Pressure: 30.05"   Gusts: NA
Location:  43.85°N, 88.84°W
Report Text: KOSH 210653Z AUTO 35009KT 10SM OVC048 08/03 A3005 RMK AO2 SLP177 T00780033
Loading
Personal Weather Stations






























Interactive Weather Map
Tropical Storm Tracking
New forecast layout! Learn more

10-Day Weather Forecast

Advertisements
Track Severe Weather on mobile